createdAt,value
2022-09-20T00:29:17.059Z,1012.82
2022-09-20T00:29:57.402Z,1012.81
2022-09-20T00:30:37.873Z,1012.82
2022-09-20T00:31:18.405Z,1012.8
2022-09-20T00:31:58.840Z,1012.81
2022-09-20T00:32:39.243Z,1012.77
2022-09-20T00:33:19.715Z,1012.82
2022-09-20T00:36:35.403Z,1012.8
2022-09-20T00:37:16.098Z,1012.8
2022-09-20T00:37:56.614Z,1012.78
2022-09-20T00:38:37.097Z,1012.82
2022-09-20T00:39:17.601Z,1012.79
2022-09-20T00:39:58.092Z,1012.81
2022-09-20T00:40:38.614Z,1012.81
2022-09-20T00:41:19.014Z,1012.73
2022-09-20T00:41:59.490Z,1012.68
2022-09-20T00:42:39.968Z,1012.7
2022-09-20T00:43:20.459Z,1012.72
2022-09-20T00:44:00.944Z,1012.7
2022-09-20T00:44:41.435Z,1012.75
2022-09-20T00:45:21.891Z,1012.71
2022-09-20T00:46:02.442Z,1012.72
2022-09-20T00:46:42.878Z,1012.75
2022-09-20T00:47:23.349Z,1012.74
2022-09-20T00:48:44.326Z,1012.76
2022-09-20T00:49:24.838Z,1012.74
2022-09-20T00:50:05.311Z,1012.73
2022-09-20T00:50:45.796Z,1012.74
2022-09-20T00:51:26.341Z,1012.77
2022-09-20T00:52:06.771Z,1012.76
2022-09-20T00:52:47.281Z,1012.75
2022-09-20T00:53:27.734Z,1012.72
2022-09-20T00:54:08.252Z,1012.73
2022-09-20T00:54:48.777Z,1012.77
2022-09-20T00:55:29.232Z,1012.79
2022-09-20T00:56:09.742Z,1012.77
2022-09-20T00:56:50.255Z,1012.79
2022-09-20T00:57:30.689Z,1012.77
2022-09-20T00:58:11.188Z,1012.78
2022-09-20T00:58:51.631Z,1012.76
2022-09-20T00:59:32.097Z,1012.77
2022-09-20T01:00:12.600Z,1012.77
2022-09-20T01:00:53.067Z,1012.73
2022-09-20T01:01:33.613Z,1012.81
2022-09-20T01:02:14.074Z,1012.79
2022-09-20T01:02:54.459Z,1012.8
2022-09-20T01:03:34.964Z,1012.79
2022-09-20T01:04:15.443Z,1012.78
2022-09-20T01:04:55.878Z,1012.78
2022-09-20T01:05:36.345Z,1012.82
2022-09-20T01:06:16.858Z,1012.8
2022-09-20T01:06:57.334Z,1012.77
2022-09-20T01:07:37.762Z,1012.79
2022-09-20T01:08:18.221Z,1012.78
2022-09-20T01:08:58.703Z,1012.8
2022-09-20T01:09:39.285Z,1012.73
2022-09-20T01:10:19.705Z,1012.77
2022-09-20T01:11:00.249Z,1012.77
2022-09-20T01:11:40.754Z,1012.8
2022-09-20T01:12:21.164Z,1012.79
2022-09-20T01:13:01.673Z,1012.8
2022-09-20T01:13:42.157Z,1012.81
2022-09-20T01:14:22.698Z,1012.8
2022-09-20T01:15:03.205Z,1012.8
2022-09-20T01:15:43.758Z,1012.81
2022-09-20T01:16:25.004Z,1012.77
2022-09-20T01:17:04.829Z,1012.79
2022-09-20T01:17:45.379Z,1012.81
2022-09-20T01:18:25.813Z,1012.78
2022-09-20T01:20:38.719Z,1012.76
2022-09-20T01:21:19.175Z,1012.77
2022-09-20T01:21:59.633Z,1012.76
2022-09-20T01:22:40.177Z,1012.79
2022-09-20T01:23:20.649Z,1012.76
2022-09-20T01:24:01.223Z,1012.77
2022-09-20T01:24:41.697Z,1012.73
2022-09-20T01:25:22.169Z,1012.73
2022-09-20T01:26:02.632Z,1012.77
2022-09-20T01:26:43.136Z,1012.75
2022-09-20T01:27:23.616Z,1012.72
2022-09-20T01:28:04.139Z,1012.76
2022-09-20T01:28:44.559Z,1012.75
2022-09-20T01:29:25.048Z,1012.77
2022-09-20T01:30:05.576Z,1012.71
2022-09-20T01:30:46.074Z,1012.78
2022-09-20T01:31:26.665Z,1012.8
2022-09-20T01:32:07.217Z,1012.78
2022-09-20T01:32:47.611Z,1012.74
2022-09-20T01:33:28.132Z,1012.81
2022-09-20T01:34:08.652Z,1012.8
2022-09-20T01:34:49.127Z,1012.81
2022-09-20T01:35:29.636Z,1012.82
2022-09-20T01:36:10.063Z,1012.79
2022-09-20T01:36:50.578Z,1012.77
2022-09-20T01:37:31.048Z,1012.78
2022-09-20T01:38:11.525Z,1012.82
2022-09-20T01:38:51.958Z,1012.83
2022-09-20T01:39:32.490Z,1012.79
2022-09-20T01:40:13.085Z,1012.81
2022-09-20T01:40:53.482Z,1012.81
2022-09-20T01:41:33.968Z,1012.8
2022-09-20T01:42:14.494Z,1012.79
2022-09-20T01:42:54.952Z,1012.81
2022-09-20T01:43:35.386Z,1012.81
2022-09-20T01:44:15.877Z,1012.83
2022-09-20T01:44:56.311Z,1012.8
2022-09-20T01:45:36.887Z,1012.82
2022-09-20T01:46:17.361Z,1012.83
2022-09-20T01:46:57.757Z,1012.83
2022-09-20T01:47:38.264Z,1012.82
2022-09-20T01:48:18.747Z,1012.85
2022-09-20T01:48:59.289Z,1012.86
2022-09-20T01:49:39.758Z,1012.85
2022-09-20T01:50:20.338Z,1012.85
2022-09-20T01:51:00.725Z,1012.83
2022-09-20T01:51:41.203Z,1012.85
2022-09-20T01:52:21.684Z,1012.89
2022-09-20T01:53:02.176Z,1012.86
2022-09-20T01:53:42.672Z,1012.84
2022-09-20T01:54:23.173Z,1012.85
2022-09-20T01:55:03.745Z,1012.85
2022-09-20T01:55:44.163Z,1012.84
2022-09-20T01:56:24.648Z,1012.87
2022-09-20T01:59:36.360Z,1012.87
2022-09-20T02:00:23.056Z,1012.86
2022-09-20T02:02:38.274Z,1012.83
2022-09-20T02:03:18.708Z,1012.81
2022-09-20T02:03:59.224Z,1012.86
2022-09-20T02:04:39.702Z,1012.82
2022-09-20T02:05:20.170Z,1012.82
2022-09-20T02:06:41.172Z,1012.86
2022-09-20T02:07:21.644Z,1012.86
2022-09-20T02:08:02.115Z,1012.83
2022-09-20T02:08:42.639Z,1012.86
2022-09-20T02:09:23.156Z,1012.81
2022-09-20T02:10:03.626Z,1012.84
2022-09-20T02:10:44.098Z,1012.84
2022-09-20T02:11:24.539Z,1012.85
2022-09-20T02:12:05.066Z,1012.83
2022-09-20T02:12:45.616Z,1012.85
2022-09-20T02:13:26.114Z,1012.84
2022-09-20T02:14:06.689Z,1012.84
2022-09-20T02:14:47.107Z,1012.84
2022-09-20T02:15:27.605Z,1012.85
2022-09-20T02:16:08.144Z,1012.84
2022-09-20T02:16:48.715Z,1012.84
2022-09-20T02:17:29.134Z,1012.8
2022-09-20T02:18:09.659Z,1012.82
2022-09-20T02:18:50.163Z,1012.83
2022-09-20T02:19:30.598Z,1012.83
2022-09-20T02:20:11.084Z,1012.83
2022-09-20T02:20:51.685Z,1012.85
2022-09-20T02:21:32.184Z,1012.85
2022-09-20T02:22:12.729Z,1012.83
2022-09-20T02:22:53.306Z,1012.83
2022-09-20T02:23:33.746Z,1012.83
2022-09-20T02:24:14.328Z,1012.82
2022-09-20T02:24:54.822Z,1012.85
2022-09-20T02:25:35.294Z,1012.84
2022-09-20T02:26:15.804Z,1012.81
2022-09-20T02:26:56.289Z,1012.83
2022-09-20T02:27:36.746Z,1012.83
2022-09-20T02:28:57.726Z,1012.85
2022-09-20T02:29:38.233Z,1012.84
2022-09-20T02:30:18.758Z,1012.81
2022-09-20T02:30:59.290Z,1012.82
2022-09-20T02:31:39.910Z,1012.82
2022-09-20T02:32:20.269Z,1012.78
2022-09-20T02:33:00.794Z,1012.78
2022-09-20T02:33:41.289Z,1012.8
2022-09-20T02:34:21.774Z,1012.75
2022-09-20T02:35:02.248Z,1012.76
2022-09-20T02:35:42.748Z,1012.72
2022-09-20T02:36:23.235Z,1012.75
2022-09-20T02:37:03.756Z,1012.74
2022-09-20T02:37:44.234Z,1012.75
2022-09-20T02:38:24.739Z,1012.7
2022-09-20T02:40:57.627Z,1012.69
2022-09-20T02:41:46.178Z,1012.63
2022-09-20T02:42:34.943Z,1012.61
2022-09-20T02:43:23.465Z,1012.65
2022-09-20T02:44:12.199Z,1012.58
2022-09-20T02:45:01.112Z,1012.58
2022-09-20T02:45:49.616Z,1012.59
2022-09-20T02:46:38.240Z,1012.59
2022-09-20T02:47:27.363Z,1012.57
2022-09-20T02:48:15.630Z,1012.54
2022-09-20T02:49:04.279Z,1012.55
2022-09-20T02:49:52.923Z,1012.53
2022-09-20T02:50:41.895Z,1012.54
2022-09-20T02:51:30.203Z,1012.53
2022-09-20T02:52:18.632Z,1012.52
2022-09-20T02:53:07.104Z,1012.51
2022-09-20T02:53:55.980Z,1012.53
2022-09-20T02:54:44.314Z,1012.5
2022-09-20T02:55:32.947Z,1012.49
2022-09-20T02:56:21.694Z,1012.51
2022-09-20T02:57:10.417Z,1012.54
2022-09-20T02:57:59.235Z,1012.53
2022-09-20T02:58:47.646Z,1012.48
2022-09-20T02:59:36.053Z,1012.5
2022-09-20T03:00:25.282Z,1012.53
2022-09-20T03:01:13.383Z,1012.58
2022-09-20T03:02:02.886Z,1012.56
2022-09-20T03:02:51.895Z,1012.56
2022-09-20T03:03:40.696Z,1012.58
2022-09-20T03:04:34.229Z,1012.57
2022-09-20T03:05:23.041Z,1012.58
2022-09-20T03:06:11.738Z,1012.57
2022-09-20T03:07:01.136Z,1012.58
2022-09-20T03:07:54.100Z,1012.59
2022-09-20T03:08:41.388Z,1012.57
2022-09-20T03:09:33.153Z,1012.56
2022-09-20T03:10:25.664Z,1012.61
2022-09-20T03:11:14.422Z,1012.6
2022-09-20T03:12:02.510Z,1012.59
2022-09-20T03:13:01.065Z,1012.6
2022-09-20T03:13:49.633Z,1012.59
2022-09-20T03:14:38.184Z,1012.59
2022-09-20T03:15:27.442Z,1012.61
2022-09-20T03:16:15.689Z,1012.58
2022-09-20T03:17:04.614Z,1012.62
2022-09-20T03:17:53.101Z,1012.59
2022-09-20T03:18:41.596Z,1012.57
2022-09-20T03:19:30.451Z,1012.61
2022-09-20T03:20:19.430Z,1012.59
2022-09-20T03:21:07.886Z,1012.62
2022-09-20T03:21:56.206Z,1012.62
2022-09-20T03:24:18.364Z,1012.62
2022-09-20T03:24:59.019Z,1012.62
2022-09-20T03:25:39.508Z,1012.64
2022-09-20T03:26:19.998Z,1012.63
2022-09-20T03:27:00.643Z,1012.63
2022-09-20T03:27:40.962Z,1012.63
2022-09-20T03:28:21.463Z,1012.64
2022-09-20T03:29:01.931Z,1012.62
2022-09-20T03:29:42.418Z,1012.62
2022-09-20T03:30:22.921Z,1012.65
2022-09-20T03:31:03.420Z,1012.61
2022-09-20T03:31:43.958Z,1012.62
2022-09-20T03:32:24.359Z,1012.6
2022-09-20T03:33:04.910Z,1012.66
2022-09-20T03:33:45.290Z,1012.67
2022-09-20T03:34:25.819Z,1012.61
2022-09-20T03:35:06.364Z,1012.61
2022-09-20T03:35:46.839Z,1012.62
2022-09-20T03:38:10.402Z,1012.56
2022-09-20T03:38:58.824Z,1012.55
2022-09-20T03:39:47.718Z,1012.56
2022-09-20T03:40:36.198Z,1012.55
2022-09-20T03:41:24.861Z,1012.56
2022-09-20T03:42:13.730Z,1012.54
2022-09-20T03:43:02.350Z,1012.55
2022-09-20T03:43:50.729Z,1012.54
2022-09-20T03:44:39.293Z,1012.57
2022-09-20T03:45:28.222Z,1012.56
2022-09-20T03:46:16.906Z,1012.58
2022-09-20T03:47:05.440Z,1012.6
2022-09-20T03:47:53.793Z,1012.6
2022-09-20T03:48:42.821Z,1012.58
2022-09-20T03:49:31.828Z,1012.58
2022-09-20T03:50:19.908Z,1012.58
2022-09-20T03:51:08.629Z,1012.58
2022-09-20T03:51:57.070Z,1012.58
2022-09-20T03:52:46.297Z,1012.53
2022-09-20T03:53:34.459Z,1012.56
2022-09-20T03:54:23.055Z,1012.55
2022-09-20T03:55:11.871Z,1012.58
2022-09-20T03:56:00.408Z,1012.58
2022-09-20T03:56:49.442Z,1012.6
2022-09-20T03:57:37.814Z,1012.59
2022-09-20T03:58:26.354Z,1012.61
2022-09-20T03:59:15.304Z,1012.59
2022-09-20T04:00:03.936Z,1012.57
2022-09-20T04:00:52.371Z,1012.59
2022-09-20T04:02:29.660Z,1012.6
2022-09-20T04:03:18.651Z,1012.62
2022-09-20T04:04:07.203Z,1012.61
2022-09-20T04:04:54.949Z,1012.65
2022-09-20T04:05:43.822Z,1012.62
2022-09-20T04:06:32.546Z,1012.64
2022-09-20T04:07:21.818Z,1012.68
2022-09-20T04:08:10.351Z,1012.69
2022-09-20T04:08:58.867Z,1012.74
2022-09-20T04:09:47.340Z,1012.74
2022-09-20T04:10:35.925Z,1012.72
2022-09-20T04:11:25.034Z,1012.76
2022-09-20T04:12:13.576Z,1012.78
2022-09-20T04:13:02.047Z,1012.78
2022-09-20T04:13:50.598Z,1012.79
2022-09-20T04:14:39.398Z,1012.79
2022-09-20T04:15:28.311Z,1012.79
2022-09-20T04:16:16.415Z,1012.77
2022-09-20T04:17:05.505Z,1012.76
2022-09-20T04:17:54.252Z,1012.73
2022-09-20T04:18:42.685Z,1012.76
2022-09-20T04:19:33.115Z,1012.74
2022-09-20T04:20:20.048Z,1012.74
2022-09-20T04:21:08.828Z,1012.7
2022-09-20T04:21:57.509Z,1012.68
2022-09-20T04:22:46.091Z,1012.69
2022-09-20T04:23:34.969Z,1012.68
2022-09-20T04:24:21.352Z,1012.69
2022-09-20T04:25:09.968Z,1012.7
2022-09-20T04:25:58.338Z,1012.73
2022-09-20T04:26:47.026Z,1012.7
2022-09-20T04:27:35.623Z,1012.67
2022-09-20T04:28:24.182Z,1012.66
2022-09-20T04:29:12.935Z,1012.69
2022-09-20T04:30:01.286Z,1012.68
2022-09-20T04:30:50.139Z,1012.71
2022-09-20T04:32:27.535Z,1012.74
2022-09-20T04:33:16.011Z,1012.74
2022-09-20T04:34:04.465Z,1012.71
2022-09-20T04:34:53.030Z,1012.66
2022-09-20T04:35:40.420Z,1012.71
2022-09-20T04:36:29.625Z,1012.75
2022-09-20T04:37:17.961Z,1012.74
2022-09-20T04:38:06.978Z,1012.76
2022-09-20T04:38:55.177Z,1012.75
2022-09-20T04:39:44.280Z,1012.77
2022-09-20T04:40:32.713Z,1012.77
2022-09-20T04:41:21.705Z,1012.81
2022-09-20T04:42:10.260Z,1012.82
2022-09-20T04:42:59.139Z,1012.79
2022-09-20T04:43:47.633Z,1012.82
2022-09-20T04:44:36.222Z,1012.82
2022-09-20T04:45:24.956Z,1012.81
2022-09-20T04:46:13.844Z,1012.82
2022-09-20T04:46:56.789Z,1012.84
2022-09-20T04:47:37.193Z,1012.84
2022-09-20T04:48:17.741Z,1012.85
2022-09-20T04:48:58.207Z,1012.86
2022-09-20T04:49:38.622Z,1012.84
2022-09-20T04:50:19.099Z,1012.85
2022-09-20T04:50:59.591Z,1012.86
2022-09-20T04:51:40.069Z,1012.86
2022-09-20T04:53:01.075Z,1012.86
2022-09-20T04:53:41.616Z,1012.91
2022-09-20T04:54:22.084Z,1012.92
2022-09-20T04:55:02.585Z,1012.88
2022-09-20T04:55:43.221Z,1012.92
2022-09-20T04:56:23.769Z,1012.93
2022-09-20T04:57:04.169Z,1012.93
2022-09-20T04:57:44.631Z,1012.92
2022-09-20T04:58:25.144Z,1012.96
2022-09-20T04:59:05.737Z,1012.96
2022-09-20T04:59:46.082Z,1012.95
2022-09-20T05:00:26.589Z,1012.97
2022-09-20T05:01:07.095Z,1012.96
2022-09-20T05:01:47.674Z,1012.99
2022-09-20T05:02:28.117Z,1012.99
2022-09-20T05:03:08.579Z,1012.97
2022-09-20T05:03:49.072Z,1012.96
2022-09-20T05:04:29.569Z,1013
2022-09-20T05:05:10.154Z,1012.96
2022-09-20T05:05:50.686Z,1012.93
2022-09-20T05:06:31.140Z,1012.96
2022-09-20T05:07:11.623Z,1012.98
2022-09-20T05:07:52.098Z,1012.96
2022-09-20T05:08:32.539Z,1012.96
2022-09-20T05:09:13.073Z,1012.96
2022-09-20T05:09:53.629Z,1012.94
2022-09-20T05:10:34.085Z,1012.95
2022-09-20T05:11:14.570Z,1012.96
2022-09-20T05:11:55.048Z,1012.93
2022-09-20T05:12:35.580Z,1012.94
2022-09-20T05:13:16.042Z,1012.94
2022-09-20T05:13:56.503Z,1012.94
2022-09-20T05:14:36.988Z,1012.93
2022-09-20T05:15:17.480Z,1012.93
2022-09-20T05:15:57.952Z,1012.95
2022-09-20T05:16:39.579Z,1012.93
2022-09-20T05:17:18.956Z,1012.95
2022-09-20T05:17:59.454Z,1012.93
2022-09-20T05:18:39.956Z,1012.95
2022-09-20T05:19:20.491Z,1012.99
2022-09-20T05:20:00.970Z,1012.97
2022-09-20T05:20:41.516Z,1013.01
2022-09-20T05:21:22.117Z,1013.03
2022-09-20T05:22:02.631Z,1013.06
2022-09-20T05:22:43.090Z,1013.06
2022-09-20T05:23:23.604Z,1013.05
2022-09-20T05:24:04.046Z,1013.07
2022-09-20T05:24:44.594Z,1013.09
2022-09-20T05:25:25.017Z,1013.09
2022-09-20T05:26:05.597Z,1013.1
2022-09-20T05:26:45.988Z,1013.14
2022-09-20T05:27:26.490Z,1013.11
2022-09-20T05:28:06.941Z,1013.14
2022-09-20T05:28:47.426Z,1013.12
2022-09-20T05:29:28.004Z,1013.15
2022-09-20T05:30:08.501Z,1013.15
2022-09-20T05:30:49.019Z,1013.15
2022-09-20T05:31:29.511Z,1013.2
2022-09-20T05:32:10.033Z,1013.2
2022-09-20T05:33:30.933Z,1013.2
2022-09-20T05:34:11.526Z,1013.23
2022-09-20T05:34:52.039Z,1013.22
2022-09-20T05:35:32.570Z,1013.23
2022-09-20T05:36:13.080Z,1013.21
2022-09-20T05:36:53.519Z,1013.2
2022-09-20T05:37:34.072Z,1013.24
2022-09-20T05:38:14.566Z,1013.25
2022-09-20T05:38:55.806Z,1013.2
2022-09-20T05:39:35.536Z,1013.25
2022-09-20T05:40:16.117Z,1013.25
2022-09-20T05:40:56.611Z,1013.27
2022-09-20T05:41:37.176Z,1013.22
2022-09-20T05:42:17.708Z,1013.24
2022-09-20T05:42:58.226Z,1013.23
2022-09-20T05:43:38.974Z,1013.22
2022-09-20T05:44:20.155Z,1013.2
2022-09-20T05:45:00.715Z,1013.23
2022-09-20T05:45:41.220Z,1013.28
2022-09-20T05:46:21.745Z,1013.26
2022-09-20T05:47:02.304Z,1013.26
2022-09-20T05:47:42.822Z,1013.26
2022-09-20T05:48:23.409Z,1013.29
2022-09-20T05:49:04.768Z,1013.26
2022-09-20T05:50:25.790Z,1013.26
2022-09-20T05:51:06.358Z,1013.27
2022-09-20T05:51:46.872Z,1013.28
2022-09-20T05:52:28.094Z,1013.25
2022-09-20T06:31:35.334Z,1013.5
2022-09-20T06:32:15.888Z,1013.51
2022-09-20T06:32:56.464Z,1013.47
2022-09-20T06:33:37.029Z,1013.52
2022-09-20T06:34:18.199Z,1013.52
2022-09-20T06:34:58.672Z,1013.51
2022-09-20T06:35:39.199Z,1013.53
2022-09-20T06:36:19.725Z,1013.52
2022-09-20T06:37:00.164Z,1013.52
2022-09-20T06:37:40.795Z,1013.47
2022-09-20T06:38:21.343Z,1013.46
2022-09-20T06:39:01.843Z,1013.5
2022-09-20T06:39:42.949Z,1013.49
2022-09-20T06:40:23.440Z,1013.46
2022-09-20T06:41:03.962Z,1013.44
2022-09-20T06:41:45.659Z,1013.46
2022-09-20T06:42:27.220Z,1013.42
2022-09-20T06:43:07.061Z,1013.43
2022-09-20T06:43:47.600Z,1013.47
2022-09-20T06:44:28.950Z,1013.46
2022-09-20T06:45:09.420Z,1013.44
2022-09-20T06:48:24.195Z,1013.48
2022-09-20T06:49:04.556Z,1013.48
2022-09-20T06:49:45.702Z,1013.48
2022-09-20T06:50:28.101Z,1013.5
2022-09-20T06:51:10.076Z,1013.53
2022-09-20T06:51:51.161Z,1013.52
2022-09-20T06:52:32.357Z,1013.5
2022-09-20T06:53:13.431Z,1013.55
2022-09-20T06:53:54.456Z,1013.58
2022-09-20T06:58:41.243Z,1013.64
2022-09-20T06:59:23.166Z,1013.63
2022-09-20T07:00:04.462Z,1013.62
2022-09-20T07:00:45.753Z,1013.63
2022-09-20T07:01:30.368Z,1013.63
2022-09-20T07:02:09.271Z,1013.62
2022-09-20T07:09:43.117Z,1013.69
2022-09-20T07:10:23.790Z,1013.69
2022-09-20T07:11:04.543Z,1013.68
2022-09-20T07:11:44.996Z,1013.7
2022-09-20T07:12:25.528Z,1013.74
2022-09-20T07:13:06.302Z,1013.7
2022-09-20T07:13:47.088Z,1013.67
2022-09-20T07:14:28.768Z,1013.71
2022-09-20T07:15:09.406Z,1013.71
2022-09-20T07:15:51.224Z,1013.68
2022-09-20T07:16:31.803Z,1013.69
2022-09-20T07:17:34.143Z,1013.72
2022-09-20T07:20:09.732Z,1013.74
2022-09-20T07:20:58.369Z,1013.75
2022-09-20T07:21:47.029Z,1013.74
2022-09-20T07:22:36.194Z,1013.76
2022-09-20T07:23:24.584Z,1013.72
2022-09-20T07:24:13.808Z,1013.72
2022-09-20T07:25:02.187Z,1013.72
2022-09-20T07:25:50.854Z,1013.74
2022-09-20T07:26:39.356Z,1013.74
2022-09-20T07:27:29.419Z,1013.71
2022-09-20T07:28:16.923Z,1013.75
2022-09-20T07:29:05.638Z,1013.76
2022-09-20T07:29:54.573Z,1013.71
2022-09-20T07:30:43.026Z,1013.7
2022-09-20T07:31:31.734Z,1013.7
2022-09-20T07:32:20.274Z,1013.72
2022-09-20T07:33:09.983Z,1013.72
2022-09-20T07:33:57.633Z,1013.73
2022-09-20T07:40:47.891Z,1013.74
2022-09-20T08:04:54.768Z,1013.99
2022-09-20T08:07:32.884Z,1013.96
2022-09-20T08:08:14.338Z,1013.97
2022-09-20T08:08:54.348Z,1013.96
2022-09-20T08:09:34.904Z,1013.98
2022-09-20T08:10:15.563Z,1014
2022-09-20T08:10:56.199Z,1014.01
2022-09-20T08:11:36.924Z,1014.03
2022-09-20T08:14:19.984Z,1014.03
2022-09-20T08:19:30.942Z,1014.11
2022-09-20T08:20:11.518Z,1014.09
2022-09-20T08:20:52.627Z,1014.1
2022-09-20T08:21:33.332Z,1014.09
2022-09-20T08:22:14.260Z,1014.12
2022-09-20T08:23:12.913Z,1014.11
2022-09-20T08:23:36.521Z,1014.13
2022-09-20T08:26:46.052Z,1014.12
2022-09-20T08:27:41.640Z,1014.08
2022-09-20T08:30:28.000Z,1014.13
2022-09-20T08:31:08.516Z,1014.14
2022-09-20T08:31:49.135Z,1014.13
2022-09-20T08:32:29.787Z,1014.12
2022-09-20T08:33:10.242Z,1014.14
2022-09-20T08:34:31.269Z,1014.11
2022-09-20T08:36:51.063Z,1014.07
2022-09-20T08:37:44.650Z,1014.13
2022-09-20T08:41:22.275Z,1014.17
2022-09-20T08:42:02.847Z,1014.18
2022-09-20T08:42:44.672Z,1014.15
2022-09-20T08:43:25.384Z,1014.12
2022-09-20T08:44:46.614Z,1014.19
2022-09-20T08:45:35.223Z,1014.23
2022-09-20T08:46:08.635Z,1014.26
2022-09-20T08:46:49.155Z,1014.21
2022-09-20T08:47:29.759Z,1014.21
2022-09-20T08:48:10.443Z,1014.26
2022-09-20T08:48:51.232Z,1014.23
2022-09-20T08:49:35.271Z,1014.25
2022-09-20T08:50:18.854Z,1014.24
2022-09-20T08:50:56.463Z,1014.26
2022-09-20T08:51:37.017Z,1014.25
2022-09-20T08:52:17.670Z,1014.27
2022-09-20T08:53:01.254Z,1014.23
2022-09-20T08:53:38.883Z,1014.22
2022-09-20T08:54:19.334Z,1014.23
2022-09-20T08:54:59.873Z,1014.24
2022-09-20T08:55:40.500Z,1014.23
2022-09-20T08:56:21.003Z,1014.23
2022-09-20T08:57:01.610Z,1014.22
2022-09-20T08:57:42.171Z,1014.18
2022-09-20T08:58:22.786Z,1014.17
2022-09-20T08:59:03.305Z,1014.16
2022-09-20T08:59:43.814Z,1014.21
2022-09-20T09:00:24.386Z,1014.17
2022-09-20T09:01:05.082Z,1014.18
2022-09-20T09:01:45.711Z,1014.14
2022-09-20T09:02:26.232Z,1014.18
2022-09-20T09:03:07.709Z,1014.19
2022-09-20T09:03:47.418Z,1014.14
2022-09-20T09:04:28.039Z,1014.16
2022-09-20T09:05:08.682Z,1014.17
2022-09-20T09:05:49.128Z,1014.16
2022-09-20T09:06:30.424Z,1014.13
2022-09-20T09:07:10.992Z,1014.16
2022-09-20T09:07:54.539Z,1014.1
2022-09-20T09:08:38.211Z,1014.17
2022-09-20T09:09:16.512Z,1014.16
2022-09-20T09:09:56.990Z,1014.17
2022-09-20T09:10:44.813Z,1014.18
2022-09-20T09:11:18.376Z,1014.16
2022-09-20T09:12:39.906Z,1014.17
2022-09-20T09:19:37.295Z,1014.17
2022-09-20T09:21:23.238Z,1014.17
2022-09-20T09:22:03.773Z,1014.13
2022-09-20T09:22:44.431Z,1014.16
2022-09-20T09:23:25.004Z,1014.14
2022-09-20T09:24:05.537Z,1014.15
2022-09-20T09:24:46.248Z,1014.14
2022-09-20T09:25:26.773Z,1014.15
2022-09-20T09:26:07.253Z,1014.12
2022-09-20T09:26:47.797Z,1014.12
2022-09-20T09:27:28.280Z,1014.15
2022-09-20T09:28:08.796Z,1014.13
2022-09-20T09:28:49.382Z,1014.11
2022-09-20T09:29:34.201Z,1014.16
2022-09-20T09:30:10.449Z,1014.1
2022-09-20T09:30:51.035Z,1014.07
2022-09-20T09:31:31.593Z,1014.1
2022-09-20T09:32:12.091Z,1014.1
2022-09-20T09:32:52.605Z,1014.11
2022-09-20T09:33:33.244Z,1014.13
2022-09-20T09:34:13.742Z,1014.13
2022-09-20T09:34:54.297Z,1014.13
2022-09-20T09:35:34.821Z,1014.15
2022-09-20T09:40:28.098Z,1014.18
2022-09-20T09:41:09.063Z,1014.16
2022-09-20T09:41:49.529Z,1014.13
2022-09-20T09:42:30.036Z,1014.16
2022-09-20T09:43:10.722Z,1014.13
2022-09-20T09:43:51.516Z,1014.12
2022-09-20T09:44:32.208Z,1014.1
2022-09-20T09:45:12.649Z,1014.1
2022-09-20T09:45:53.353Z,1014.1
2022-09-20T09:46:33.777Z,1014.04
2022-09-20T09:47:14.351Z,1014.1
2022-09-20T09:47:54.827Z,1014.08
2022-09-20T09:48:37.946Z,1014.1
2022-09-20T09:49:16.106Z,1014.09
2022-09-20T09:49:59.799Z,1014.09
2022-09-20T09:51:17.606Z,1013.99
2022-09-20T09:51:58.235Z,1014.03
2022-09-20T09:52:38.825Z,1014.02
2022-09-20T09:53:19.344Z,1014.08
2022-09-20T09:53:59.884Z,1014.05
2022-09-20T09:54:42.138Z,1014.07
2022-09-20T09:55:22.674Z,1014.06
2022-09-20T09:56:03.982Z,1014.04
2022-09-20T09:56:44.516Z,1014.13
2022-09-20T09:57:25.029Z,1014.09
2022-09-20T09:58:06.331Z,1014.09
2022-09-20T09:58:46.865Z,1014.07
2022-09-20T09:59:27.394Z,1014.08
2022-09-20T10:00:14.348Z,1014.05
2022-09-20T10:01:33.164Z,1014.02
2022-09-20T10:02:10.500Z,1014.06
2022-09-20T10:02:51.014Z,1014.04
2022-09-20T10:03:31.670Z,1014.04
2022-09-20T10:04:12.157Z,1014
2022-09-20T10:04:52.782Z,1014.01
2022-09-20T10:05:33.661Z,1014.05
2022-09-20T10:06:14.088Z,1014.01
2022-09-20T10:06:54.637Z,1014.05
2022-09-20T10:07:35.898Z,1014.07
2022-09-20T10:08:17.068Z,1014.05
2022-09-20T10:10:32.338Z,1014.01
2022-09-20T10:11:13.083Z,1014.02
2022-09-20T10:17:34.126Z,1014.03
2022-09-20T10:18:14.708Z,1014.04
2022-09-20T10:18:55.361Z,1014.05
2022-09-20T10:19:35.890Z,1014.03
2022-09-20T10:20:16.517Z,1014.01
2022-09-20T10:20:57.038Z,1014.02
2022-09-20T10:21:37.903Z,1014.01
2022-09-20T10:22:19.217Z,1014.04
2022-09-20T10:23:26.752Z,1013.99
2022-09-20T10:24:01.780Z,1014
2022-09-20T10:24:21.094Z,1014.01
2022-09-20T10:25:01.684Z,1014.02
2022-09-20T10:25:42.239Z,1014.05
2022-09-20T10:26:22.798Z,1014.05
2022-09-20T10:27:03.363Z,1014
2022-09-20T10:34:55.395Z,1014.03
2022-09-20T10:39:23.147Z,1014.01
2022-09-20T10:40:03.868Z,1014.03
2022-09-20T10:40:44.252Z,1013.98
2022-09-20T10:41:24.811Z,1014.02
2022-09-20T10:42:05.346Z,1014.02
2022-09-20T10:42:45.893Z,1013.97
2022-09-20T10:43:26.449Z,1014.02
2022-09-20T10:44:06.970Z,1014.02
2022-09-20T10:44:47.517Z,1014.02
2022-09-20T10:45:53.603Z,1013.99
2022-09-20T10:46:30.574Z,1014
2022-09-20T10:46:49.239Z,1014.02
2022-09-20T10:47:29.799Z,1013.99
2022-09-20T10:48:10.268Z,1014
2022-09-20T10:48:50.766Z,1014.03
2022-09-20T10:49:31.572Z,1014
2022-09-20T10:50:12.014Z,1013.97
2022-09-20T10:51:33.024Z,1013.94
2022-09-20T10:52:13.520Z,1013.99
2022-09-20T10:52:54.221Z,1013.96
2022-09-20T10:54:15.643Z,1013.97
2022-09-20T10:54:56.213Z,1013.96
2022-09-20T10:55:36.785Z,1013.99
2022-09-20T10:56:17.428Z,1013.96
2022-09-20T10:56:57.953Z,1013.97
2022-09-20T10:57:40.360Z,1013.99
2022-09-20T10:58:19.213Z,1013.96
2022-09-20T10:59:40.329Z,1014.01
2022-09-20T11:00:20.999Z,1014.01
2022-09-20T11:01:02.061Z,1014.01
2022-09-20T11:01:42.939Z,1014.02
2022-09-20T11:02:23.627Z,1014.03
2022-09-20T11:03:04.083Z,1014.03
2022-09-20T11:03:44.779Z,1014.03
2022-09-20T11:07:12.806Z,1014.04
2022-09-20T11:10:26.020Z,1014.02
2022-09-20T11:11:07.619Z,1014.05
2022-09-20T11:11:48.135Z,1014.05
2022-09-20T11:12:28.660Z,1014.08
2022-09-20T11:13:09.822Z,1014.07
2022-09-20T11:13:50.649Z,1014.08
2022-09-20T11:14:31.236Z,1014.1
2022-09-20T11:15:12.143Z,1014.11
2022-09-20T11:15:52.849Z,1014.13
2022-09-20T11:16:33.526Z,1014.14
2022-09-20T11:17:14.156Z,1014.13
2022-09-20T11:17:55.897Z,1014.14
2022-09-20T11:18:36.565Z,1014.15
2022-09-20T11:19:17.214Z,1014.15
2022-09-20T11:19:57.707Z,1014.18
2022-09-20T11:20:38.239Z,1014.18
2022-09-20T11:21:18.986Z,1014.16
2022-09-20T11:21:59.600Z,1014.12
2022-09-20T11:22:40.302Z,1014.18
2022-09-20T11:23:21.030Z,1014.18
2022-09-20T11:24:01.755Z,1014.19
2022-09-20T11:24:42.514Z,1014.17
2022-09-20T11:25:26.138Z,1014.2
2022-09-20T11:26:03.642Z,1014.22
2022-09-20T11:26:44.375Z,1014.2
2022-09-20T11:30:29.734Z,1014.27
2022-09-20T11:31:10.241Z,1014.29
2022-09-20T11:31:50.818Z,1014.28
2022-09-20T11:32:31.540Z,1014.33
2022-09-20T11:33:12.462Z,1014.31
2022-09-20T11:33:53.042Z,1014.29
2022-09-20T11:34:33.469Z,1014.35
2022-09-20T11:35:14.019Z,1014.31
2022-09-20T11:35:54.718Z,1014.33
2022-09-20T11:36:35.290Z,1014.31
2022-09-20T11:37:15.756Z,1014.29
2022-09-20T11:37:56.422Z,1014.3
2022-09-20T11:38:36.928Z,1014.32
2022-09-20T11:39:17.484Z,1014.31
2022-09-20T11:39:58.136Z,1014.31
2022-09-20T11:40:38.666Z,1014.37
2022-09-20T11:41:19.338Z,1014.35
2022-09-20T11:42:00.039Z,1014.36
2022-09-20T11:42:40.679Z,1014.39
2022-09-20T11:43:21.430Z,1014.39
2022-09-20T11:44:01.958Z,1014.39
2022-09-20T11:44:42.483Z,1014.36
2022-09-20T11:45:26.345Z,1014.39
2022-09-20T11:46:03.684Z,1014.36
2022-09-20T11:46:44.195Z,1014.37
2022-09-20T11:47:43.183Z,1014.41